Portada
METAR-TAF:

METAR-TAF

Aeroports :

Tingo María, Perú

latitud: 09-17-15S, longitud: 076-00-18W, altitud: 654 m

Observació

L'informe es va fer fa 3 hores i 32 minuts, a les 19:00 UTC
Vent 8 kt del Sud/Sud-Est
Temperatura 24°C
Humitat 83%
Pressió 1009 hPa
Visibilitat 10 km o més
Núvols disperses a una alçada de 3000 ft
Cel ennuvolat a una alçada de 10000 ft

METAR: SPGM 011900Z 16008KT 9999 SCT030 BKN100 24/21 Q1009 RMK PP000

Hora: 17:32 (22:32 UTC)

Pronòstic

L'informe es va fer fa 5 hores i 27 minuts, a les 17:05 UTC
Pronòstic vàlid del 01 a les 18 UTC al 02 a les 18 UTC
Vent 5 kt del Nord/Nord-Est
Visibilitat 10 km o més
Escasses núvols a una alçada de 3000 ft
Evolucionant progressivament
l' 02 a les 07 UTC al 02 a les 09 UTC
Visibilitat: 5000 m
Núvols disperses a una alçada de 1000 ft
Cel cobert a una alçada de 7000 ft
boirina

TAF: SPGM 011705Z 0118/0218 03005KT 9999 FEW030 TX33/0119Z TN21/0211Z BECMG 0207/0209 5000 BR SCT010 OVC070

Observacions i pronòstics meteorològics de més de 4000 aeroports (METAR i TAF).

Les estacions disponibles són els punts grocs i vermells al mapa.

Posi el ratolí al punt desitjat per veure el nom de l'estació.

Feu clic per veure les observacions i els pronòstics meteorològics.

Per canviar el mapa: feu clic els botons verds amb una creu de color negre per apropar; al botó verd amb un guió per allunyar la imatge; o en les fletxes verdes per a mapes adjacents.


METAR-TAF: